createdAt,value
2017-11-09T00:01:01.126Z,100268.00
2017-11-09T00:03:27.068Z,100265.91
2017-11-09T00:05:53.015Z,100260.02
2017-11-09T00:08:18.952Z,100263.87
2017-11-09T00:10:45.014Z,100265.16
2017-11-09T00:13:10.969Z,100260.13
2017-11-09T00:15:36.929Z,100260.39
2017-11-09T00:18:02.880Z,100262.64
2017-11-09T00:20:28.804Z,100265.19
2017-11-09T00:22:54.786Z,100262.05
2017-11-09T00:25:20.759Z,100254.43
2017-11-09T00:27:46.696Z,100251.52
2017-11-09T00:30:12.679Z,100255.31
2017-11-09T00:32:38.620Z,100247.13
2017-11-09T00:35:04.600Z,100249.95
2017-11-09T00:37:30.552Z,100252.28
2017-11-09T00:39:56.497Z,100255.03
2017-11-09T00:42:22.457Z,100248.34
2017-11-09T00:44:48.439Z,100256.26
2017-11-09T00:47:14.407Z,100253.63
2017-11-09T00:49:40.342Z,100252.50
2017-11-09T00:52:06.320Z,100255.92
2017-11-09T00:54:32.276Z,100250.95
2017-11-09T00:56:58.226Z,100252.09
2017-11-09T00:59:24.205Z,100251.76
2017-11-09T01:01:50.166Z,100253.82
2017-11-09T01:04:16.135Z,100248.47
2017-11-09T01:06:42.099Z,100249.24
2017-11-09T01:09:08.167Z,100248.77
2017-11-09T01:11:34.133Z,100244.26
2017-11-09T01:14:00.068Z,100252.72
2017-11-09T01:16:26.013Z,100249.52
2017-11-09T01:18:51.973Z,100250.25
2017-11-09T01:21:17.941Z,100247.46
2017-11-09T01:23:43.994Z,100244.14
2017-11-09T01:26:09.978Z,100246.63
2017-11-09T01:28:35.943Z,100241.47
2017-11-09T01:31:01.896Z,100241.03
2017-11-09T01:33:27.836Z,100239.42
2017-11-09T01:35:53.800Z,100243.94
2017-11-09T01:38:19.856Z,100243.86
2017-11-09T01:40:45.796Z,100237.96
2017-11-09T01:43:11.746Z,100235.33
2017-11-09T01:45:37.683Z,100235.70
2017-11-09T01:48:03.643Z,100240.63
2017-11-09T01:50:29.584Z,100243.73
2017-11-09T01:52:55.547Z,100241.69
2017-11-09T01:55:21.492Z,100240.16
2017-11-09T01:57:47.443Z,100239.75
2017-11-09T02:00:13.399Z,100247.15
2017-11-09T02:02:39.352Z,100252.37
2017-11-09T02:05:05.284Z,100244.87
2017-11-09T02:07:31.225Z,100236.43
2017-11-09T02:09:57.164Z,100239.30
2017-11-09T02:12:23.115Z,100240.94
2017-11-09T02:14:49.045Z,100238.59
2017-11-09T02:17:14.983Z,100237.98
2017-11-09T02:19:40.925Z,100238.45
2017-11-09T02:22:06.887Z,100235.60
2017-11-09T02:24:32.887Z,100235.72
2017-11-09T02:26:58.834Z,100233.08
2017-11-09T02:29:24.833Z,100238.62
2017-11-09T02:31:50.857Z,100240.76
2017-11-09T02:34:16.830Z,100241.49
2017-11-09T02:36:42.791Z,100243.20
2017-11-09T02:39:08.771Z,100241.49
2017-11-09T02:41:34.736Z,100244.78
2017-11-09T02:44:00.694Z,100243.27
2017-11-09T02:46:26.649Z,100244.61
2017-11-09T02:48:52.617Z,100241.20
2017-11-09T02:51:18.618Z,100250.23
2017-11-09T02:53:44.552Z,100242.90
2017-11-09T02:56:10.543Z,100246.75
2017-11-09T02:58:36.476Z,100247.98
2017-11-09T03:01:02.421Z,100256.17
2017-11-09T03:03:28.369Z,100253.80
2017-11-09T03:05:54.339Z,100248.23
2017-11-09T03:08:20.324Z,100246.91
2017-11-09T03:10:46.276Z,100247.48
2017-11-09T03:13:12.247Z,100252.92
2017-11-09T03:15:38.194Z,100256.47
2017-11-09T03:18:04.147Z,100256.09
2017-11-09T03:20:30.100Z,100262.73
2017-11-09T03:22:56.091Z,100268.07
2017-11-09T03:25:22.050Z,100265.33
2017-11-09T03:27:47.989Z,100258.66
2017-11-09T03:30:13.959Z,100260.42
2017-11-09T03:32:39.946Z,100257.13
2017-11-09T03:35:05.878Z,100257.17
2017-11-09T03:37:31.837Z,100257.17
2017-11-09T03:39:57.819Z,100255.53
2017-11-09T03:42:23.776Z,100259.23
2017-11-09T03:44:49.730Z,100263.30
2017-11-09T03:47:15.687Z,100260.81
2017-11-09T03:49:41.655Z,100261.05
2017-11-09T03:52:07.586Z,100267.16
2017-11-09T03:54:33.548Z,100267.31
2017-11-09T03:56:59.513Z,100265.17
2017-11-09T03:59:25.459Z,100268.44
2017-11-09T04:01:51.428Z,100268.68
2017-11-09T04:04:17.479Z,100275.09
2017-11-09T04:06:43.415Z,100276.79
2017-11-09T04:09:09.378Z,100270.64
2017-11-09T04:11:35.345Z,100270.69
2017-11-09T04:14:01.331Z,100265.92
2017-11-09T04:16:27.267Z,100263.48
2017-11-09T04:18:53.229Z,100268.23
2017-11-09T04:21:19.177Z,100268.06
2017-11-09T04:23:45.112Z,100265.70
2017-11-09T04:26:11.063Z,100269.41
2017-11-09T04:28:37.073Z,100269.25
2017-11-09T04:31:03.020Z,100267.41
2017-11-09T04:33:28.989Z,100270.29
2017-11-09T04:35:54.926Z,100271.42
2017-11-09T04:38:20.900Z,100268.07
2017-11-09T04:40:46.853Z,100270.69
2017-11-09T04:43:12.789Z,100271.17
2017-11-09T04:45:38.758Z,100273.20
2017-11-09T04:48:04.704Z,100277.57
2017-11-09T04:50:31.791Z,100279.91
2017-11-09T04:52:57.737Z,100277.06
2017-11-09T04:55:23.795Z,100282.61
2017-11-09T04:57:49.776Z,100282.47
2017-11-09T05:00:15.755Z,100287.16
2017-11-09T05:02:41.737Z,100290.10
2017-11-09T05:05:07.828Z,100294.15
2017-11-09T05:07:33.799Z,100297.09
2017-11-09T05:09:59.769Z,100300.86
2017-11-09T05:12:26.048Z,100300.06
2017-11-09T05:14:52.220Z,100294.95
2017-11-09T05:17:18.221Z,100292.16
2017-11-09T05:19:44.193Z,100292.24
2017-11-09T05:22:10.218Z,100295.16
2017-11-09T05:24:36.163Z,100295.62
2017-11-09T05:27:02.400Z,100298.67
2017-11-09T05:29:28.345Z,100300.98
2017-11-09T05:31:54.343Z,100289.44
2017-11-09T05:34:20.373Z,100300.59
2017-11-09T05:36:46.305Z,100298.73
2017-11-09T05:39:12.266Z,100295.97
2017-11-09T05:41:38.225Z,100290.69
2017-11-09T05:44:04.200Z,100296.73
2017-11-09T05:46:30.140Z,100298.31
2017-11-09T05:48:56.208Z,100292.11
2017-11-09T05:51:22.186Z,100297.98
2017-11-09T05:53:48.144Z,100305.42
2017-11-09T05:56:14.136Z,100309.81
2017-11-09T05:58:40.090Z,100310.78
2017-11-09T06:01:06.074Z,100314.45
2017-11-09T06:03:32.047Z,100321.81
2017-11-09T06:05:58.012Z,100316.54
2017-11-09T06:08:23.945Z,100316.91
2017-11-09T06:10:49.895Z,100322.77
2017-11-09T06:13:15.837Z,100328.08
2017-11-09T06:15:41.795Z,100323.20
2017-11-09T06:18:07.737Z,100326.37
2017-11-09T06:20:33.752Z,100330.78
2017-11-09T06:22:59.742Z,100331.94
2017-11-09T06:25:25.742Z,100328.10
2017-11-09T06:27:51.702Z,100329.92
2017-11-09T06:30:17.645Z,100333.22
2017-11-09T06:32:43.584Z,100332.88
2017-11-09T06:35:09.539Z,100337.05
2017-11-09T06:37:35.493Z,100332.22
2017-11-09T06:40:01.446Z,100337.14
2017-11-09T06:42:27.485Z,100334.07
2017-11-09T06:44:53.505Z,100335.05
2017-11-09T06:47:19.440Z,100337.73
2017-11-09T06:49:45.369Z,100327.84
2017-11-09T06:52:11.336Z,100336.14
2017-11-09T06:54:37.295Z,100341.71
2017-11-09T06:57:03.240Z,100346.55
2017-11-09T06:59:29.193Z,100344.89
2017-11-09T07:01:55.146Z,100344.63
2017-11-09T07:04:21.093Z,100345.27
2017-11-09T07:06:47.028Z,100351.24
2017-11-09T07:09:12.966Z,100356.30
2017-11-09T07:11:38.927Z,100355.39
2017-11-09T07:14:04.904Z,100364.05
2017-11-09T07:16:30.886Z,100361.42
2017-11-09T07:18:56.836Z,100368.80
2017-11-09T07:21:22.814Z,100367.55
2017-11-09T07:23:48.745Z,100365.42
2017-11-09T07:26:14.705Z,100363.80
2017-11-09T07:28:40.666Z,100366.05
2017-11-09T07:31:06.613Z,100370.25
2017-11-09T07:33:32.555Z,100368.91
2017-11-09T07:35:58.535Z,100368.95
2017-11-09T07:38:24.479Z,100374.11
2017-11-09T07:40:50.958Z,100381.50
2017-11-09T07:43:16.938Z,100371.53
2017-11-09T07:45:42.949Z,100375.58
2017-11-09T07:48:08.888Z,100381.50
2017-11-09T07:50:34.845Z,100384.72
2017-11-09T07:53:00.830Z,100376.75
2017-11-09T07:55:26.774Z,100376.03
2017-11-09T07:57:52.736Z,100387.55
2017-11-09T08:00:18.704Z,100383.02
2017-11-09T08:02:44.652Z,100389.59
2017-11-09T08:05:10.628Z,100388.94
2017-11-09T08:07:36.573Z,100387.48
2017-11-09T08:10:02.535Z,100394.06
2017-11-09T08:12:28.525Z,100390.69
2017-11-09T08:14:54.500Z,100396.16
2017-11-09T08:17:20.688Z,100392.48
2017-11-09T08:19:46.641Z,100387.61
2017-11-09T08:22:12.602Z,100385.76
2017-11-09T08:24:38.563Z,100391.28
2017-11-09T08:27:04.532Z,100392.30
2017-11-09T08:29:30.509Z,100399.85
2017-11-09T08:31:56.467Z,100404.60
2017-11-09T08:34:22.450Z,100408.24
2017-11-09T08:36:48.419Z,100410.16
2017-11-09T08:39:14.394Z,100403.38
2017-11-09T08:41:40.384Z,100405.21
2017-11-09T08:44:06.328Z,100406.84
2017-11-09T08:46:32.299Z,100399.18
2017-11-09T08:48:58.255Z,100402.27
2017-11-09T08:51:24.188Z,100404.89
2017-11-09T08:53:50.170Z,100400.05
2017-11-09T08:56:16.124Z,100402.32
2017-11-09T09:01:14.596Z,100400.34
2017-11-09T09:03:40.537Z,100402.53
2017-11-09T09:06:06.495Z,100406.37
2017-11-09T09:08:32.443Z,100399.36
2017-11-09T09:10:58.414Z,100406.13
2017-11-09T09:13:24.365Z,100406.02
2017-11-09T09:15:50.349Z,100405.22
2017-11-09T09:18:16.316Z,100408.94
2017-11-09T09:20:42.275Z,100411.48
2017-11-09T09:23:08.249Z,100413.27
2017-11-09T09:25:34.224Z,100414.98
2017-11-09T09:28:00.224Z,100419.60
2017-11-09T09:30:26.193Z,100429.20
2017-11-09T09:32:52.140Z,100427.27
2017-11-09T09:35:18.113Z,100430.11
2017-11-09T09:37:44.083Z,100426.12
2017-11-09T09:40:10.043Z,100420.75
2017-11-09T09:42:36.006Z,100426.06
2017-11-09T09:45:01.946Z,100422.23
2017-11-09T09:47:27.886Z,100420.73
2017-11-09T09:49:53.851Z,100416.69
2017-11-09T09:52:19.835Z,100419.77
2017-11-09T09:54:45.762Z,100415.45
2017-11-09T09:57:12.021Z,100418.70
2017-11-09T09:59:37.974Z,100413.66
2017-11-09T10:02:03.953Z,100418.53
2017-11-09T10:04:29.938Z,100411.24
2017-11-09T10:06:55.899Z,100409.82
2017-11-09T10:09:21.852Z,100415.53
2017-11-09T10:11:47.834Z,100415.77
2017-11-09T10:14:13.783Z,100416.95
2017-11-09T10:16:39.773Z,100405.67
2017-11-09T10:19:05.758Z,100413.02
2017-11-09T10:21:31.713Z,100413.80
2017-11-09T10:23:57.674Z,100408.91
2017-11-09T10:26:23.616Z,100409.31
2017-11-09T10:28:49.576Z,100404.95
2017-11-09T10:31:15.509Z,100405.16
2017-11-09T10:33:41.483Z,100400.10
2017-11-09T10:36:07.449Z,100406.41
2017-11-09T10:38:33.388Z,100398.73
2017-11-09T10:40:59.329Z,100403.02
2017-11-09T10:43:25.333Z,100402.40
2017-11-09T10:45:51.274Z,100397.58
2017-11-09T10:48:17.259Z,100394.06
2017-11-09T10:50:43.237Z,100401.14
2017-11-09T10:53:09.213Z,100395.99
2017-11-09T10:55:35.170Z,100394.84
2017-11-09T10:58:01.173Z,100395.21
2017-11-09T11:00:27.295Z,100390.50
2017-11-09T11:02:53.265Z,100392.24
2017-11-09T11:05:19.221Z,100389.64
2017-11-09T11:07:45.208Z,100386.80
2017-11-09T11:10:11.179Z,100388.25
2017-11-09T11:12:37.130Z,100385.08
2017-11-09T11:15:03.114Z,100385.81
2017-11-09T11:17:29.060Z,100381.45
2017-11-09T11:19:54.995Z,100377.98
2017-11-09T11:22:20.981Z,100380.91
2017-11-09T11:24:47.002Z,100375.92
2017-11-09T11:27:12.975Z,100379.25
2017-11-09T11:29:38.957Z,100376.63
2017-11-09T11:32:04.917Z,100377.37
2017-11-09T11:34:30.959Z,100378.91
2017-11-09T11:36:56.938Z,100379.03
2017-11-09T11:39:22.929Z,100387.02
2017-11-09T11:41:48.884Z,100380.22
2017-11-09T11:44:14.905Z,100377.05
2017-11-09T11:46:40.999Z,100385.44
2017-11-09T11:49:07.077Z,100383.34
2017-11-09T11:51:33.043Z,100377.23
2017-11-09T11:53:59.045Z,100374.84
2017-11-09T11:56:24.989Z,100370.86
2017-11-09T11:58:50.964Z,100370.91
2017-11-09T12:01:16.994Z,100371.83
2017-11-09T12:03:42.951Z,100366.73
2017-11-09T12:06:08.901Z,100368.02
2017-11-09T12:08:34.865Z,100368.55
2017-11-09T12:11:00.803Z,100367.72
2017-11-09T12:13:26.762Z,100362.86
2017-11-09T12:15:52.755Z,100360.73
2017-11-09T12:18:18.701Z,100357.48
2017-11-09T12:20:44.677Z,100358.07
2017-11-09T12:23:10.625Z,100353.23
2017-11-09T12:25:36.629Z,100352.35
2017-11-09T12:28:02.611Z,100353.09
2017-11-09T12:30:28.563Z,100351.41
2017-11-09T12:32:54.513Z,100344.08
2017-11-09T12:35:20.457Z,100338.16
2017-11-09T12:37:46.417Z,100335.84
2017-11-09T12:40:12.667Z,100340.61
2017-11-09T12:42:38.616Z,100340.22
2017-11-09T12:45:04.575Z,100334.77
2017-11-09T12:47:30.540Z,100345.16
2017-11-09T12:49:56.513Z,100343.56
2017-11-09T12:52:22.450Z,100337.81
2017-11-09T12:54:48.431Z,100343.28
2017-11-09T12:57:15.091Z,100346.98
2017-11-09T12:59:41.033Z,100347.69
2017-11-09T13:02:07.007Z,100349.33
2017-11-09T13:04:32.960Z,100350.17
2017-11-09T13:06:58.947Z,100348.52
2017-11-09T13:09:24.889Z,100350.85
2017-11-09T13:11:50.870Z,100351.33
2017-11-09T13:14:16.844Z,100351.35
2017-11-09T13:16:42.782Z,100358.70
2017-11-09T13:19:08.747Z,100356.34
2017-11-09T13:21:34.730Z,100363.27
2017-11-09T13:24:00.672Z,100360.94
2017-11-09T13:26:26.646Z,100362.32
2017-11-09T13:28:52.594Z,100361.08
2017-11-09T13:31:18.537Z,100369.55
2017-11-09T13:33:44.479Z,100367.30
2017-11-09T13:36:10.430Z,100374.84
2017-11-09T13:38:36.389Z,100373.89
2017-11-09T13:41:02.360Z,100374.45
2017-11-09T13:43:28.328Z,100377.59
2017-11-09T13:45:54.288Z,100374.40
2017-11-09T13:48:20.263Z,100382.05
2017-11-09T13:50:46.205Z,100381.67
2017-11-09T13:53:12.151Z,100382.36
2017-11-09T13:55:38.141Z,100379.80
2017-11-09T13:58:04.087Z,100385.41
2017-11-09T14:00:30.031Z,100387.88
2017-11-09T14:02:55.961Z,100390.59
2017-11-09T14:05:21.935Z,100389.52
2017-11-09T14:07:47.875Z,100387.19
2017-11-09T14:10:13.844Z,100384.72
2017-11-09T14:12:39.837Z,100386.13
2017-11-09T14:15:05.784Z,100378.48
2017-11-09T14:17:31.777Z,100381.67
2017-11-09T14:19:57.718Z,100378.20
2017-11-09T14:22:23.680Z,100383.14
2017-11-09T14:24:49.670Z,100376.16
2017-11-09T14:27:15.621Z,100383.61
2017-11-09T14:29:41.581Z,100385.52
2017-11-09T14:32:07.558Z,100381.95
2017-11-09T14:34:33.519Z,100391.52
2017-11-09T14:36:59.507Z,100392.16
2017-11-09T14:39:25.479Z,100393.08
2017-11-09T14:41:51.415Z,100393.91
2017-11-09T14:44:17.386Z,100401.95
2017-11-09T14:46:43.385Z,100405.47
2017-11-09T14:49:09.345Z,100397.48
2017-11-09T14:51:35.287Z,100402.72
2017-11-09T14:54:01.272Z,100401.08
2017-11-09T14:56:27.210Z,100399.68
2017-11-09T14:58:53.234Z,100402.88
2017-11-09T15:01:19.177Z,100398.56
2017-11-09T15:03:45.137Z,100391.48
2017-11-09T15:06:11.223Z,100392.27
2017-11-09T15:08:37.227Z,100389.97
2017-11-09T15:11:03.206Z,100393.62
2017-11-09T15:13:29.154Z,100393.34
2017-11-09T15:15:55.089Z,100385.76
2017-11-09T15:18:21.047Z,100391.06
2017-11-09T15:20:47.010Z,100383.55
2017-11-09T15:23:12.957Z,100391.48
2017-11-09T15:25:38.927Z,100392.63
2017-11-09T15:28:04.879Z,100392.78
2017-11-09T15:30:30.879Z,100395.28
2017-11-09T15:32:56.846Z,100400.34
2017-11-09T15:35:22.865Z,100408.39
2017-11-09T15:37:48.798Z,100401.55
2017-11-09T15:40:14.733Z,100406.78
2017-11-09T15:42:40.678Z,100411.31
2017-11-09T15:45:06.626Z,100409.23
2017-11-09T15:47:32.639Z,100407.52
2017-11-09T15:49:58.574Z,100412.28
2017-11-09T15:52:24.512Z,100417.23
2017-11-09T15:54:50.461Z,100422.03
2017-11-09T15:57:16.418Z,100413.83
2017-11-09T15:59:42.375Z,100418.58
2017-11-09T16:02:08.352Z,100415.52
2017-11-09T16:04:34.299Z,100417.05
2017-11-09T16:07:00.248Z,100412.19
2017-11-09T16:09:26.193Z,100414.08
2017-11-09T16:11:52.169Z,100413.27
2017-11-09T16:14:18.111Z,100412.00
2017-11-09T16:16:44.049Z,100418.74
2017-11-09T16:19:09.990Z,100418.80
2017-11-09T16:21:35.991Z,100426.42
2017-11-09T16:24:01.991Z,100422.44
2017-11-09T16:26:27.963Z,100420.05
2017-11-09T16:28:53.925Z,100424.41
2017-11-09T16:31:19.873Z,100424.42
2017-11-09T16:33:45.829Z,100426.51
2017-11-09T16:36:11.853Z,100421.29
2017-11-09T16:38:37.837Z,100425.82
2017-11-09T16:41:03.787Z,100425.92
2017-11-09T16:43:29.749Z,100420.86
2017-11-09T16:45:55.729Z,100423.81
2017-11-09T16:48:21.727Z,100422.55
2017-11-09T16:50:47.678Z,100423.75
2017-11-09T16:53:13.653Z,100427.91
2017-11-09T16:55:39.617Z,100425.02
2017-11-09T16:58:05.561Z,100429.45
2017-11-09T17:00:31.514Z,100428.42
2017-11-09T17:02:57.495Z,100419.59
2017-11-09T17:05:23.466Z,100420.79
2017-11-09T17:07:49.449Z,100421.27
2017-11-09T17:10:15.402Z,100418.06
2017-11-09T17:12:41.342Z,100424.94
2017-11-09T17:15:07.310Z,100417.37
2017-11-09T17:17:33.395Z,100415.70
2017-11-09T17:19:59.341Z,100417.80
2017-11-09T17:22:25.313Z,100423.77
2017-11-09T17:24:51.289Z,100416.64
2017-11-09T17:27:17.237Z,100419.91
2017-11-09T17:29:43.206Z,100416.52
2017-11-09T17:32:09.157Z,100420.75
2017-11-09T17:34:35.226Z,100415.97
2017-11-09T17:37:01.177Z,100420.05
2017-11-09T17:39:27.146Z,100416.45
2017-11-09T17:41:53.116Z,100417.67
2017-11-09T17:44:19.094Z,100417.61
2017-11-09T17:46:45.033Z,100417.52
2017-11-09T17:49:10.986Z,100416.30
2017-11-09T17:51:36.948Z,100417.92
2017-11-09T17:54:02.947Z,100415.79
2017-11-09T17:56:28.938Z,100420.28
2017-11-09T17:58:54.867Z,100421.29
2017-11-09T18:01:20.797Z,100422.67
2017-11-09T18:03:46.758Z,100418.92
2017-11-09T18:06:12.726Z,100422.11
2017-11-09T18:08:38.669Z,100417.94
2017-11-09T18:11:04.647Z,100415.31
2017-11-09T18:13:30.830Z,100417.44
2017-11-09T18:15:56.835Z,100421.62
2017-11-09T18:18:22.770Z,100414.56
2017-11-09T18:20:48.733Z,100419.23
2017-11-09T18:23:14.709Z,100419.59
2017-11-09T18:25:41.069Z,100419.98
2017-11-09T18:28:07.040Z,100417.28
2017-11-09T18:30:33.001Z,100412.59
2017-11-09T18:32:58.979Z,100409.27
2017-11-09T18:35:24.979Z,100404.33
2017-11-09T18:37:50.943Z,100402.40
2017-11-09T18:40:16.880Z,100406.19
2017-11-09T18:42:42.844Z,100407.02
2017-11-09T18:45:08.853Z,100403.69
2017-11-09T18:47:34.859Z,100409.54
2017-11-09T18:50:00.840Z,100398.60
2017-11-09T18:52:26.831Z,100401.55
2017-11-09T18:54:52.788Z,100394.09
2017-11-09T18:57:18.915Z,100400.73
2017-11-09T18:59:44.906Z,100395.64
2017-11-09T19:02:10.883Z,100406.19
2017-11-09T19:04:36.842Z,100399.06
2017-11-09T19:07:02.805Z,100399.92
2017-11-09T19:09:28.753Z,100402.67
2017-11-09T19:11:54.717Z,100395.70
2017-11-09T19:14:20.695Z,100398.64
2017-11-09T19:16:46.697Z,100396.69
2017-11-09T19:19:12.638Z,100392.00
2017-11-09T19:21:38.596Z,100390.04
2017-11-09T19:24:04.645Z,100384.19
2017-11-09T19:26:30.611Z,100394.54
2017-11-09T19:28:56.693Z,100395.96
2017-11-09T19:31:22.735Z,100396.77
2017-11-09T19:33:48.742Z,100404.02
2017-11-09T19:36:14.763Z,100401.89
2017-11-09T19:38:40.717Z,100401.45
2017-11-09T19:41:06.801Z,100406.53
2017-11-09T19:43:32.790Z,100401.88
2017-11-09T19:45:58.757Z,100396.37
2017-11-09T19:48:24.701Z,100396.43
2017-11-09T19:50:50.707Z,100391.68
2017-11-09T19:53:16.653Z,100394.72
2017-11-09T19:55:42.627Z,100394.25
2017-11-09T19:58:08.594Z,100401.75
2017-11-09T20:00:34.588Z,100391.28
2017-11-09T20:03:00.580Z,100391.27
2017-11-09T20:05:26.604Z,100391.70
2017-11-09T20:07:53.476Z,100393.31
2017-11-09T20:10:19.504Z,100392.39
2017-11-09T20:12:45.489Z,100393.34
2017-11-09T20:15:11.459Z,100377.43
2017-11-09T20:17:37.403Z,100369.80
2017-11-09T20:20:03.377Z,100364.48
2017-11-09T20:22:29.371Z,100375.97
2017-11-09T20:24:56.469Z,100364.99
2017-11-09T20:27:22.447Z,100361.59
2017-11-09T20:29:48.500Z,100361.55
2017-11-09T20:32:14.533Z,100367.59
2017-11-09T20:34:40.713Z,100371.72
2017-11-09T20:37:06.891Z,100370.83
2017-11-09T20:39:32.956Z,100385.27
2017-11-09T20:41:58.965Z,100394.76
2017-11-09T20:44:24.925Z,100396.83
2017-11-09T20:46:50.908Z,100395.03
2017-11-09T20:49:16.925Z,100394.88
2017-11-09T20:51:42.993Z,100396.94
2017-11-09T20:54:08.953Z,100395.73
2017-11-09T20:56:34.977Z,100396.37
2017-11-09T20:59:02.136Z,100399.45
2017-11-09T21:01:28.104Z,100402.87
2017-11-09T21:03:54.207Z,100402.06
2017-11-09T21:06:20.208Z,100402.14
2017-11-09T21:08:46.185Z,100396.22
2017-11-09T21:11:12.209Z,100404.59
2017-11-09T21:13:38.243Z,100395.78
2017-11-09T21:16:04.295Z,100399.13
2017-11-09T21:18:35.331Z,100391.64
2017-11-09T21:21:02.405Z,100394.55
2017-11-09T21:23:28.404Z,100389.63
2017-11-09T21:25:54.422Z,100394.85
2017-11-09T21:28:20.423Z,100389.53
2017-11-09T21:30:46.807Z,100390.95
2017-11-09T21:33:12.783Z,100393.33
2017-11-09T21:35:38.741Z,100399.17
2017-11-09T21:38:04.778Z,100394.02
2017-11-09T21:40:30.730Z,100393.67
2017-11-09T21:42:56.743Z,100382.45
2017-11-09T21:45:23.026Z,100385.84
2017-11-09T21:47:48.982Z,100384.54
2017-11-09T21:50:15.044Z,100381.97
2017-11-09T21:52:41.030Z,100379.96
2017-11-09T21:55:06.980Z,100381.16
2017-11-09T21:57:33.020Z,100371.12
2017-11-09T21:59:58.969Z,100372.59
2017-11-09T22:02:25.022Z,100362.12
2017-11-09T22:04:51.030Z,100363.40
2017-11-09T22:07:16.996Z,100356.05
2017-11-09T22:09:42.971Z,100354.22
2017-11-09T22:12:08.937Z,100354.14
2017-11-09T22:14:34.899Z,100345.58
2017-11-09T22:17:00.851Z,100341.83
2017-11-09T22:19:26.824Z,100335.91
2017-11-09T22:21:52.757Z,100327.16
2017-11-09T22:24:18.752Z,100322.04
2017-11-09T22:26:44.697Z,100322.43
2017-11-09T22:29:10.661Z,100320.91
2017-11-09T22:31:36.603Z,100316.88
2017-11-09T22:34:02.557Z,100320.34
2017-11-09T22:39:01.004Z,100322.09
2017-11-09T22:41:26.980Z,100322.16
2017-11-09T22:43:52.948Z,100321.99
2017-11-09T22:46:18.897Z,100326.15
2017-11-09T22:48:44.852Z,100321.69
2017-11-09T22:51:11.296Z,100315.79
2017-11-09T22:53:37.232Z,100327.63
2017-11-09T22:56:03.190Z,100329.71
2017-11-09T22:58:29.121Z,100336.46
2017-11-09T23:00:55.069Z,100336.30
2017-11-09T23:03:21.035Z,100341.87
2017-11-09T23:05:46.984Z,100341.45
2017-11-09T23:08:12.963Z,100327.59
2017-11-09T23:10:38.953Z,100332.23
2017-11-09T23:13:04.910Z,100328.59
2017-11-09T23:15:30.876Z,100326.06
2017-11-09T23:17:56.822Z,100320.16
2017-11-09T23:20:22.756Z,100315.84
2017-11-09T23:22:48.731Z,100315.91
2017-11-09T23:25:14.694Z,100312.54
2017-11-09T23:27:40.655Z,100305.86
2017-11-09T23:30:06.613Z,100296.11
2017-11-09T23:32:32.620Z,100298.64
2017-11-09T23:34:58.585Z,100293.61
2017-11-09T23:37:24.562Z,100296.92
2017-11-09T23:39:50.512Z,100288.18
2017-11-09T23:42:16.448Z,100287.33
2017-11-09T23:44:42.390Z,100276.48
2017-11-09T23:47:08.359Z,100267.59
2017-11-09T23:49:34.306Z,100266.81
2017-11-09T23:52:00.297Z,100275.66
2017-11-09T23:54:26.244Z,100271.82
2017-11-09T23:56:52.188Z,100271.03
2017-11-09T23:59:18.166Z,100273.97
